createdAt,value
2023-03-21T00:00:54.041Z,16.67
2023-03-21T00:03:56.232Z,19.02
2023-03-21T00:06:58.397Z,17.52
2023-03-21T00:10:12.505Z,20.58
2023-03-21T00:13:19.234Z,19.75
2023-03-21T00:16:26.256Z,22.60
2023-03-21T00:19:32.382Z,20.98
2023-03-21T00:22:35.093Z,21.33
2023-03-21T00:25:37.287Z,20.48
2023-03-21T00:28:40.905Z,20.20
2023-03-21T00:31:43.006Z,19.10
2023-03-21T00:35:00.238Z,19.42
2023-03-21T00:38:08.643Z,16.00
2023-03-21T00:41:23.333Z,18.92
2023-03-21T00:44:28.138Z,18.58
2023-03-21T00:47:30.275Z,20.15
2023-03-21T00:50:32.553Z,19.40
2023-03-21T00:53:34.585Z,18.07
2023-03-21T00:56:36.547Z,19.58
2023-03-21T00:59:38.546Z,17.50
2023-03-21T01:03:02.613Z,19.10
2023-03-21T01:06:07.374Z,19.08
2023-03-21T01:09:17.142Z,20.05
2023-03-21T01:12:19.205Z,20.35
2023-03-21T01:15:21.816Z,17.75
2023-03-21T01:18:27.768Z,19.98
2023-03-21T01:21:29.782Z,20.13
2023-03-21T01:24:32.445Z,19.37
2023-03-21T01:27:35.804Z,19.63
2023-03-21T01:30:41.934Z,18.20
2023-03-21T01:33:44.479Z,19.60
2023-03-21T01:36:46.731Z,18.48
2023-03-21T01:39:52.934Z,18.88
2023-03-21T01:42:54.955Z,19.63
2023-03-21T01:46:10.654Z,17.90
2023-03-21T01:49:34.508Z,17.63
2023-03-21T01:52:50.010Z,17.70
2023-03-21T01:56:01.441Z,16.10
2023-03-21T01:59:24.943Z,18.08
2023-03-21T02:02:58.160Z,17.42
2023-03-21T02:06:34.443Z,16.40
2023-03-21T02:09:47.155Z,15.93
2023-03-21T02:12:55.775Z,16.63
2023-03-21T02:16:01.959Z,17.40
2023-03-21T02:19:50.959Z,17.10
2023-03-21T02:22:55.943Z,16.38
2023-03-21T02:26:42.116Z,17.63
2023-03-21T02:30:05.830Z,18.07
2023-03-21T02:33:10.850Z,17.67
2023-03-21T02:36:17.638Z,18.20
2023-03-21T02:39:23.344Z,18.13
2023-03-21T02:42:25.819Z,18.33
2023-03-21T02:45:33.528Z,19.42
2023-03-21T02:48:50.228Z,18.35
2023-03-21T02:51:54.798Z,18.13
2023-03-21T02:55:00.034Z,18.40
2023-03-21T02:58:13.501Z,18.63
2023-03-21T03:01:29.327Z,17.40
2023-03-21T03:04:31.866Z,18.00
2023-03-21T03:07:48.036Z,17.00
2023-03-21T03:10:59.188Z,19.43
2023-03-21T03:14:21.288Z,19.17
2023-03-21T03:17:45.266Z,19.35
2023-03-21T03:21:02.516Z,18.67
2023-03-21T03:24:10.050Z,17.67
2023-03-21T03:27:17.789Z,18.02
2023-03-21T03:30:23.688Z,18.77
2023-03-21T03:33:26.729Z,17.57
2023-03-21T03:36:35.866Z,19.05
2023-03-21T03:39:51.594Z,20.30
2023-03-21T03:42:54.352Z,19.23
2023-03-21T03:46:16.912Z,21.80
2023-03-21T03:49:22.592Z,19.83
2023-03-21T03:52:30.659Z,19.05
2023-03-21T03:55:39.078Z,21.45
2023-03-21T03:58:48.728Z,20.27
2023-03-21T04:01:54.220Z,19.48
2023-03-21T04:04:57.923Z,21.20
2023-03-21T04:08:00.293Z,17.65
2023-03-21T04:11:14.393Z,18.55
2023-03-21T04:14:20.818Z,21.40
2023-03-21T04:17:23.119Z,19.63
2023-03-21T04:20:35.987Z,18.08
2023-03-21T04:23:40.154Z,20.40
2023-03-21T04:26:43.339Z,21.58
2023-03-21T04:30:13.311Z,20.55
2023-03-21T04:33:26.444Z,20.48
2023-03-21T04:36:38.916Z,19.63
2023-03-21T04:39:43.037Z,20.23
2023-03-21T04:42:46.049Z,19.98
2023-03-21T04:45:48.337Z,20.73
2023-03-21T04:48:50.448Z,21.30
2023-03-21T04:51:52.517Z,21.83
2023-03-21T04:54:55.627Z,19.55
2023-03-21T04:57:58.599Z,20.77
2023-03-21T05:01:02.529Z,19.90
2023-03-21T05:04:04.897Z,21.45
2023-03-21T05:07:09.205Z,20.40
2023-03-21T05:10:12.147Z,21.92
2023-03-21T05:13:15.883Z,20.65
2023-03-21T05:16:18.100Z,19.60
2023-03-21T05:19:22.812Z,21.45
2023-03-21T05:22:28.257Z,22.35
2023-03-21T05:25:34.797Z,20.85
2023-03-21T05:28:49.003Z,21.45
2023-03-21T05:31:51.710Z,21.20
2023-03-21T05:34:55.439Z,21.38
2023-03-21T05:37:58.002Z,19.13
2023-03-21T05:41:02.885Z,19.23
2023-03-21T05:44:06.463Z,18.35
2023-03-21T05:47:08.706Z,19.60
2023-03-21T05:50:16.600Z,20.00
2023-03-21T05:53:26.069Z,19.63
2023-03-21T05:56:28.150Z,18.48
2023-03-21T05:59:39.787Z,19.42
2023-03-21T06:02:43.404Z,20.67
2023-03-21T06:06:04.415Z,20.02
2023-03-21T06:09:14.128Z,19.83
2023-03-21T06:12:20.757Z,19.92
2023-03-21T06:15:36.410Z,20.55
2023-03-21T06:18:45.070Z,19.07
2023-03-21T06:21:59.704Z,17.45
2023-03-21T06:25:02.826Z,16.17
2023-03-21T06:28:05.781Z,17.25
2023-03-21T06:31:13.900Z,18.08
2023-03-21T06:34:16.218Z,16.63
2023-03-21T06:37:18.892Z,16.70
2023-03-21T06:40:21.559Z,16.47
2023-03-21T06:43:23.755Z,15.55
2023-03-21T06:46:26.466Z,15.93
2023-03-21T06:49:28.839Z,15.93
2023-03-21T06:52:35.037Z,16.05
2023-03-21T06:55:38.746Z,17.77
2023-03-21T06:58:41.994Z,15.07
2023-03-21T07:01:51.007Z,12.85
2023-03-21T07:04:53.820Z,12.97
2023-03-21T07:08:01.339Z,11.88
2023-03-21T07:11:06.573Z,14.43
2023-03-21T07:14:09.606Z,13.65
2023-03-21T07:17:11.823Z,15.60
2023-03-21T07:20:14.303Z,15.48
2023-03-21T07:23:17.366Z,13.95
2023-03-21T07:26:19.595Z,13.80
2023-03-21T07:29:23.278Z,12.33
2023-03-21T07:32:29.955Z,12.63
2023-03-21T07:35:32.094Z,11.25
2023-03-21T07:38:34.384Z,10.70
2023-03-21T07:41:36.812Z,9.95
2023-03-21T07:44:59.018Z,9.43
2023-03-21T07:48:01.283Z,9.18
2023-03-21T07:51:03.979Z,9.00
2023-03-21T07:54:06.540Z,9.00
2023-03-21T07:57:09.122Z,9.57
2023-03-21T08:00:12.824Z,9.50
2023-03-21T08:03:14.854Z,8.52
2023-03-21T08:06:17.138Z,8.73
2023-03-21T08:09:19.750Z,8.95
2023-03-21T08:12:22.009Z,9.98
2023-03-21T08:15:24.127Z,8.93
2023-03-21T08:18:26.204Z,8.70
2023-03-21T08:21:28.424Z,9.45
2023-03-21T08:24:30.439Z,8.98
2023-03-21T08:27:32.599Z,9.13
2023-03-21T08:30:34.738Z,8.60
2023-03-21T08:33:37.298Z,9.57
2023-03-21T08:36:39.725Z,9.07
2023-03-21T08:39:41.811Z,9.98
2023-03-21T08:42:44.376Z,9.25
2023-03-21T08:45:46.740Z,7.93
2023-03-21T08:48:48.856Z,7.32
2023-03-21T08:51:55.330Z,7.60
2023-03-21T08:54:57.519Z,6.50
2023-03-21T08:57:59.904Z,7.47
2023-03-21T09:01:02.358Z,7.20
2023-03-21T09:04:08.047Z,6.72
2023-03-21T09:07:12.635Z,8.48
2023-03-21T09:10:21.602Z,7.60
2023-03-21T09:13:24.381Z,7.78
2023-03-21T09:16:26.619Z,7.03
2023-03-21T09:19:30.209Z,7.82
2023-03-21T09:22:32.599Z,7.30
2023-03-21T09:25:35.280Z,6.72
2023-03-21T09:28:40.667Z,5.53
2023-03-21T09:31:43.975Z,4.77
2023-03-21T09:34:46.250Z,4.65
2023-03-21T09:37:49.258Z,4.55
2023-03-21T09:40:55.187Z,4.07
2023-03-21T09:44:37.899Z,4.75
2023-03-21T09:47:49.769Z,5.23
2023-03-21T09:50:52.202Z,3.80
2023-03-21T09:53:57.222Z,4.10
2023-03-21T09:57:04.032Z,4.53
2023-03-21T10:00:15.960Z,4.28
2023-03-21T10:03:26.297Z,4.07
2023-03-21T10:06:32.076Z,4.07
2023-03-21T10:09:34.958Z,4.38
2023-03-21T10:12:37.056Z,3.47
2023-03-21T10:15:39.251Z,4.43
2023-03-21T10:18:42.733Z,4.80
2023-03-21T10:22:03.686Z,4.00
2023-03-21T10:25:07.806Z,4.78
2023-03-21T10:28:14.647Z,2.85
2023-03-21T10:31:19.238Z,2.70
2023-03-21T10:34:28.177Z,2.63
2023-03-21T10:37:32.283Z,2.60
2023-03-21T10:40:35.504Z,3.35
2023-03-21T10:43:40.940Z,3.38
2023-03-21T10:46:56.795Z,2.95
2023-03-21T10:50:08.617Z,2.17
2023-03-21T10:53:15.977Z,1.83
2023-03-21T10:56:18.386Z,2.70
2023-03-21T10:59:22.848Z,2.50
2023-03-21T11:02:26.810Z,2.40
2023-03-21T11:05:37.324Z,2.43
2023-03-21T11:08:41.709Z,3.22
2023-03-21T11:11:55.849Z,1.75
2023-03-21T11:14:58.044Z,2.58
2023-03-21T11:18:01.002Z,2.80
2023-03-21T11:21:07.591Z,2.90
2023-03-21T11:24:14.947Z,2.50
2023-03-21T11:27:17.687Z,2.10
2023-03-21T11:30:21.786Z,2.20
2023-03-21T11:33:27.981Z,2.25
2023-03-21T11:36:34.341Z,2.53
2023-03-21T11:39:40.004Z,2.40
2023-03-21T11:42:48.221Z,2.47
2023-03-21T11:46:01.415Z,2.65
2023-03-21T11:49:03.529Z,2.10
2023-03-21T11:52:35.067Z,1.70
2023-03-21T11:55:52.204Z,1.80
2023-03-21T11:59:03.178Z,1.65
2023-03-21T12:02:14.511Z,1.60
2023-03-21T12:05:23.796Z,2.10
2023-03-21T12:08:41.062Z,1.37
2023-03-21T12:11:51.751Z,2.03
2023-03-21T12:14:53.736Z,1.52
2023-03-21T12:18:06.418Z,2.38
2023-03-21T12:21:16.325Z,1.85
2023-03-21T12:24:33.698Z,2.93
2023-03-21T12:27:53.939Z,2.47
2023-03-21T12:31:02.050Z,2.60
2023-03-21T12:34:06.958Z,3.33
2023-03-21T12:37:12.154Z,3.20
2023-03-21T12:40:32.696Z,2.53
2023-03-21T12:43:49.588Z,2.85
2023-03-21T12:46:57.787Z,1.95
2023-03-21T12:50:09.501Z,2.03
2023-03-21T12:53:30.425Z,2.60
2023-03-21T12:56:41.007Z,1.93
2023-03-21T12:59:52.063Z,1.90
2023-03-21T13:02:56.499Z,1.55
2023-03-21T13:06:00.745Z,2.38
2023-03-21T13:09:06.960Z,1.75
2023-03-21T13:12:19.597Z,2.60
2023-03-21T13:15:27.576Z,2.70
2023-03-21T13:18:32.878Z,2.05
2023-03-21T13:21:53.643Z,2.28
2023-03-21T13:25:00.090Z,1.92
2023-03-21T13:28:03.930Z,1.63
2023-03-21T13:31:17.412Z,1.67
2023-03-21T13:34:23.629Z,1.83
2023-03-21T13:37:29.444Z,1.63
2023-03-21T13:40:41.023Z,1.73
2023-03-21T13:43:43.296Z,2.03
2023-03-21T13:46:56.517Z,1.80
2023-03-21T13:50:17.499Z,3.97
2023-03-21T13:53:21.075Z,2.58
2023-03-21T13:56:23.711Z,3.10
2023-03-21T13:59:38.511Z,1.83
2023-03-21T14:02:52.838Z,1.90
2023-03-21T14:05:54.924Z,1.65
2023-03-21T14:08:57.714Z,1.90
2023-03-21T14:12:07.016Z,2.35
2023-03-21T14:15:24.197Z,1.60
2023-03-21T14:18:34.909Z,2.67
2023-03-21T14:21:47.404Z,2.15
2023-03-21T14:24:55.293Z,2.10
2023-03-21T14:27:59.668Z,2.70
2023-03-21T14:31:02.298Z,2.90
2023-03-21T14:34:04.399Z,2.00
2023-03-21T14:37:11.241Z,2.72
2023-03-21T14:40:26.754Z,3.22
2023-03-21T14:43:28.852Z,2.70
2023-03-21T14:46:31.133Z,2.33
2023-03-21T14:49:34.708Z,3.15
2023-03-21T14:52:38.735Z,3.00
2023-03-21T14:55:56.897Z,2.53
2023-03-21T14:58:59.318Z,2.78
2023-03-21T15:02:03.824Z,2.40
2023-03-21T15:05:09.677Z,2.70
2023-03-21T15:08:11.763Z,3.20
2023-03-21T15:11:13.976Z,3.10
2023-03-21T15:14:16.884Z,3.30
2023-03-21T15:17:19.228Z,3.10
2023-03-21T15:20:24.582Z,2.92
2023-03-21T15:23:28.886Z,3.05
2023-03-21T15:26:34.029Z,3.05
2023-03-21T15:29:37.163Z,2.90
2023-03-21T15:32:39.686Z,3.00
2023-03-21T15:35:43.817Z,3.03
2023-03-21T15:38:48.956Z,2.92
2023-03-21T15:42:02.167Z,2.55
2023-03-21T15:45:14.016Z,2.10
2023-03-21T15:48:16.634Z,2.53
2023-03-21T15:51:23.353Z,3.45
2023-03-21T15:54:27.294Z,2.30
2023-03-21T15:57:32.838Z,2.83
2023-03-21T16:00:40.174Z,2.20
2023-03-21T16:03:45.895Z,2.70
2023-03-21T16:07:15.531Z,2.88
2023-03-21T16:10:28.701Z,3.13
2023-03-21T16:13:30.804Z,2.72
2023-03-21T16:16:33.011Z,3.03
2023-03-21T16:19:35.154Z,2.17
2023-03-21T16:22:37.187Z,2.53
2023-03-21T16:25:39.400Z,2.65
2023-03-21T16:28:41.520Z,3.00
2023-03-21T16:31:43.739Z,2.80
2023-03-21T16:34:46.470Z,3.20
2023-03-21T16:37:48.552Z,2.97
2023-03-21T16:40:51.714Z,3.85
2023-03-21T16:43:54.106Z,3.97
2023-03-21T16:46:56.145Z,5.00
2023-03-21T16:49:58.175Z,5.00
2023-03-21T16:53:00.693Z,5.80
2023-03-21T16:56:05.389Z,4.03
2023-03-21T16:59:08.024Z,4.50
2023-03-21T17:02:13.671Z,5.22
2023-03-21T17:05:15.772Z,6.30
2023-03-21T17:08:19.269Z,8.02
2023-03-21T17:11:23.244Z,8.13
2023-03-21T17:14:25.284Z,10.57
2023-03-21T17:17:27.693Z,10.60
2023-03-21T17:20:31.780Z,12.73
2023-03-21T17:23:33.790Z,13.15
2023-03-21T17:26:35.847Z,17.35
2023-03-21T17:29:38.071Z,18.52
2023-03-21T17:32:40.248Z,20.33
2023-03-21T17:35:42.376Z,22.37
2023-03-21T17:38:45.940Z,18.70
2023-03-21T17:41:48.141Z,15.52
2023-03-21T17:44:50.302Z,12.02
2023-03-21T17:47:52.662Z,10.57
2023-03-21T17:50:54.651Z,10.20
2023-03-21T17:53:57.491Z,10.73
2023-03-21T17:56:59.492Z,14.10
2023-03-21T18:00:02.179Z,12.75
2023-03-21T18:03:13.860Z,10.70
2023-03-21T18:06:17.486Z,11.10
2023-03-21T18:09:21.724Z,10.27
2023-03-21T18:12:23.836Z,12.82
2023-03-21T18:15:30.101Z,14.68
2023-03-21T18:18:32.903Z,13.82
2023-03-21T18:21:36.097Z,14.50
2023-03-21T18:24:38.232Z,15.13
2023-03-21T18:28:02.059Z,13.40
2023-03-21T18:31:12.227Z,14.18
2023-03-21T18:34:16.542Z,14.47
2023-03-21T18:37:20.856Z,18.48
2023-03-21T18:40:24.338Z,19.88
2023-03-21T18:44:01.126Z,20.90
2023-03-21T18:46:48.811Z,14.70
2023-03-21T18:53:14.268Z,6.53
2023-03-21T18:57:06.141Z,5.43
2023-03-21T18:59:39.407Z,5.55
2023-03-21T19:02:46.727Z,5.47
2023-03-21T19:05:49.534Z,4.97
2023-03-21T19:08:51.663Z,5.13
2023-03-21T19:11:53.746Z,5.60
2023-03-21T19:14:55.861Z,5.30
2023-03-21T19:21:21.559Z,4.88
2023-03-21T19:24:28.248Z,4.90
2023-03-21T19:27:31.082Z,4.90
2023-03-21T19:30:34.187Z,5.05
2023-03-21T19:33:36.283Z,5.10
2023-03-21T19:36:38.337Z,5.30
2023-03-21T19:39:40.399Z,5.77
2023-03-21T19:42:43.115Z,6.05
2023-03-21T19:45:48.240Z,6.20
2023-03-21T19:48:50.572Z,5.30
2023-03-21T19:51:52.614Z,5.40
2023-03-21T19:54:56.525Z,6.05
2023-03-21T19:57:58.624Z,6.07
2023-03-21T20:01:00.808Z,5.77
2023-03-21T20:04:02.926Z,5.75
2023-03-21T20:07:05.191Z,6.13
2023-03-21T20:10:09.028Z,6.57
2023-03-21T20:13:11.116Z,6.77
2023-03-21T20:16:13.647Z,5.65
2023-03-21T20:19:16.433Z,5.43
2023-03-21T20:22:27.597Z,7.13
2023-03-21T20:25:41.400Z,8.80
2023-03-21T20:28:56.420Z,8.23
2023-03-21T20:32:07.013Z,9.07
2023-03-21T20:35:19.162Z,8.43
2023-03-21T20:38:23.548Z,9.27
2023-03-21T20:41:25.554Z,10.82
2023-03-21T20:44:51.877Z,10.70
2023-03-21T20:47:50.097Z,11.52
2023-03-21T20:50:57.854Z,9.43
2023-03-21T20:54:03.623Z,9.43
2023-03-21T20:57:05.598Z,9.98
2023-03-21T21:00:15.944Z,8.52
2023-03-21T21:03:17.980Z,8.50
2023-03-21T21:06:20.512Z,9.65
2023-03-21T21:09:22.935Z,9.32
2023-03-21T21:12:28.693Z,8.30
2023-03-21T21:15:30.808Z,9.10
2023-03-21T21:18:33.270Z,8.45
2023-03-21T21:21:35.324Z,9.88
2023-03-21T21:24:37.482Z,10.05
2023-03-21T21:27:40.152Z,10.07
2023-03-21T21:30:42.852Z,10.30
2023-03-21T21:33:46.201Z,10.63
2023-03-21T21:36:48.516Z,11.50
2023-03-21T21:39:50.656Z,11.50
2023-03-21T21:42:52.762Z,11.88
2023-03-21T21:45:54.858Z,10.95
2023-03-21T21:48:58.235Z,10.67
2023-03-21T21:52:04.007Z,11.00
2023-03-21T21:55:06.603Z,10.27
2023-03-21T21:58:09.234Z,11.23
2023-03-21T22:01:11.364Z,10.35
2023-03-21T22:04:14.584Z,9.82
2023-03-21T22:07:16.820Z,11.13
2023-03-21T22:10:19.663Z,11.00
2023-03-21T22:13:21.839Z,11.75
2023-03-21T22:16:23.919Z,10.10
2023-03-21T22:19:27.707Z,11.20
2023-03-21T22:22:29.861Z,11.23
2023-03-21T22:25:33.257Z,10.93
2023-03-21T22:28:36.327Z,11.68
2023-03-21T22:31:41.966Z,11.47
2023-03-21T22:34:44.007Z,12.68
2023-03-21T22:37:46.165Z,11.77
2023-03-21T22:40:52.831Z,12.20
2023-03-21T22:43:55.341Z,11.60
2023-03-21T22:46:57.299Z,12.95
2023-03-21T22:49:59.412Z,13.15
2023-03-21T22:53:01.480Z,13.05
2023-03-21T22:56:03.531Z,13.85
2023-03-21T22:59:05.561Z,12.65
2023-03-21T23:02:09.434Z,12.93
2023-03-21T23:05:11.703Z,13.13
2023-03-21T23:08:14.115Z,13.77
2023-03-21T23:11:16.104Z,14.30
2023-03-21T23:14:20.208Z,12.93
2023-03-21T23:17:22.204Z,14.00
2023-03-21T23:20:24.180Z,13.80
2023-03-21T23:23:26.400Z,14.27
2023-03-21T23:26:28.429Z,13.25
2023-03-21T23:29:30.485Z,14.43
2023-03-21T23:32:32.908Z,14.00
2023-03-21T23:35:35.973Z,13.95
2023-03-21T23:38:38.086Z,14.82
2023-03-21T23:41:42.790Z,17.10
2023-03-21T23:44:44.814Z,15.57
2023-03-21T23:47:46.828Z,16.67
2023-03-21T23:50:48.967Z,16.00
2023-03-21T23:53:53.494Z,16.20
2023-03-21T23:56:55.609Z,15.75
2023-03-21T23:59:57.769Z,15.02
